sensor_id;sensor_type;location;lat;lon;timestamp;pressure;altitude;pressure_sealevel;temperature;humidity
76074;BME280;64776;42.636;24.358;2023-07-13T00:02:58;90659.19;;;16.71;81.12
76074;BME280;64776;42.636;24.358;2023-07-13T00:06:00;90651.34;;;16.73;81.02
76074;BME280;64776;42.636;24.358;2023-07-13T00:09:01;90652.09;;;16.68;80.87
76074;BME280;64776;42.636;24.358;2023-07-13T00:12:04;90649.13;;;16.71;80.66
76074;BME280;64776;42.636;24.358;2023-07-13T00:15:09;90649.88;;;16.72;80.18
76074;BME280;64776;42.636;24.358;2023-07-13T00:18:10;90643.25;;;16.73;79.95
76074;BME280;64776;42.636;24.358;2023-07-13T00:21:11;90650.59;;;16.72;79.70
76074;BME280;64776;42.636;24.358;2023-07-13T00:24:14;90642.00;;;16.74;79.72
76074;BME280;64776;42.636;24.358;2023-07-13T00:27:17;90635.19;;;16.73;79.44
76074;BME280;64776;42.636;24.358;2023-07-13T00:30:18;90632.72;;;16.75;79.52
76074;BME280;64776;42.636;24.358;2023-07-13T00:33:19;90642.56;;;16.67;80.06
76074;BME280;64776;42.636;24.358;2023-07-13T00:36:20;90636.94;;;16.59;80.03
76074;BME280;64776;42.636;24.358;2023-07-13T00:39:21;90632.28;;;16.49;80.43
76074;BME280;64776;42.636;24.358;2023-07-13T00:42:23;90622.28;;;16.44;80.64
76074;BME280;64776;42.636;24.358;2023-07-13T00:49:05;90618.38;;;16.39;80.31
76074;BME280;64776;42.636;24.358;2023-07-13T00:52:08;90618.66;;;16.36;80.21
76074;BME280;64776;42.636;24.358;2023-07-13T00:55:11;90616.69;;;16.30;80.89
76074;BME280;64776;42.636;24.358;2023-07-13T00:58:15;90611.84;;;16.23;80.69
76074;BME280;64776;42.636;24.358;2023-07-13T01:01:16;90615.00;;;16.22;80.67
76074;BME280;64776;42.636;24.358;2023-07-13T01:04:17;90618.69;;;16.19;80.82
76074;BME280;64776;42.636;24.358;2023-07-13T01:07:18;90617.72;;;16.16;80.94
76074;BME280;64776;42.636;24.358;2023-07-13T01:10:21;90609.91;;;16.13;81.26
76074;BME280;64776;42.636;24.358;2023-07-13T01:13:24;90607.72;;;16.11;81.08
76074;BME280;64776;42.636;24.358;2023-07-13T01:16:28;90613.34;;;16.02;81.41
76074;BME280;64776;42.636;24.358;2023-07-13T01:19:35;90608.94;;;15.99;81.22
76074;BME280;64776;42.636;24.358;2023-07-13T01:22:37;90606.25;;;15.99;81.47
76074;BME280;64776;42.636;24.358;2023-07-13T01:25:40;90608.47;;;15.95;81.60
76074;BME280;64776;42.636;24.358;2023-07-13T01:28:41;90609.72;;;15.94;81.84
76074;BME280;64776;42.636;24.358;2023-07-13T01:31:41;90603.59;;;15.88;81.20
76074;BME280;64776;42.636;24.358;2023-07-13T01:34:42;90609.00;;;15.88;81.42
76074;BME280;64776;42.636;24.358;2023-07-13T01:37:44;90613.41;;;15.80;81.84
76074;BME280;64776;42.636;24.358;2023-07-13T01:40:48;90602.13;;;15.87;81.46
76074;BME280;64776;42.636;24.358;2023-07-13T01:43:48;90605.06;;;15.89;80.99
76074;BME280;64776;42.636;24.358;2023-07-13T01:46:49;90605.09;;;15.84;81.49
76074;BME280;64776;42.636;24.358;2023-07-13T01:49:50;90605.34;;;15.80;81.17
76074;BME280;64776;42.636;24.358;2023-07-13T01:52:52;90597.28;;;15.69;81.34
76074;BME280;64776;42.636;24.358;2023-07-13T01:55:53;90591.41;;;15.54;82.01
76074;BME280;64776;42.636;24.358;2023-07-13T01:58:54;90591.41;;;15.54;82.44
76074;BME280;64776;42.636;24.358;2023-07-13T02:01:55;90602.44;;;15.51;81.88
76074;BME280;64776;42.636;24.358;2023-07-13T02:04:56;90603.88;;;15.40;83.04
76074;BME280;64776;42.636;24.358;2023-07-13T02:07:59;90603.16;;;15.29;83.43
76074;BME280;64776;42.636;24.358;2023-07-13T02:11:02;90605.09;;;15.28;83.53
76074;BME280;64776;42.636;24.358;2023-07-13T02:14:03;90606.09;;;15.31;83.40
76074;BME280;64776;42.636;24.358;2023-07-13T02:17:04;90610.50;;;15.28;83.40
76074;BME280;64776;42.636;24.358;2023-07-13T02:20:06;90609.03;;;15.33;83.42
76074;BME280;64776;42.636;24.358;2023-07-13T02:23:08;90606.59;;;15.35;83.07
76074;BME280;64776;42.636;24.358;2023-07-13T02:26:10;90610.00;;;15.30;82.85
76074;BME280;64776;42.636;24.358;2023-07-13T02:29:11;90609.75;;;15.39;82.65
76074;BME280;64776;42.636;24.358;2023-07-13T02:32:11;90616.38;;;15.43;82.14
76074;BME280;64776;42.636;24.358;2023-07-13T02:35:12;90622.22;;;15.31;82.18
76074;BME280;64776;42.636;24.358;2023-07-13T02:38:14;90616.13;;;15.25;82.92
76074;BME280;64776;42.636;24.358;2023-07-13T02:41:15;90616.09;;;15.19;82.91
76074;BME280;64776;42.636;24.358;2023-07-13T02:44:16;90616.34;;;15.16;82.60
76074;BME280;64776;42.636;24.358;2023-07-13T02:47:17;90617.31;;;15.13;82.31
76074;BME280;64776;42.636;24.358;2023-07-13T02:50:18;90614.16;;;15.14;82.62
76074;BME280;64776;42.636;24.358;2023-07-13T02:53:20;90615.59;;;15.04;83.03
76074;BME280;64776;42.636;24.358;2023-07-13T02:56:23;90613.63;;;15.05;83.60
76074;BME280;64776;42.636;24.358;2023-07-13T02:59:24;90619.50;;;14.98;83.43
76074;BME280;64776;42.636;24.358;2023-07-13T03:02:25;90613.88;;;14.96;83.49
76074;BME280;64776;42.636;24.358;2023-07-13T03:05:26;90611.44;;;14.98;83.07
76074;BME280;64776;42.636;24.358;2023-07-13T03:08:29;90611.66;;;14.94;84.03
76074;BME280;64776;42.636;24.358;2023-07-13T03:11:30;90611.44;;;14.98;82.96
76074;BME280;64776;42.636;24.358;2023-07-13T03:14:31;90612.91;;;14.88;84.00
76074;BME280;64776;42.636;24.358;2023-07-13T03:17:32;90601.91;;;14.86;83.68
76074;BME280;64776;42.636;24.358;2023-07-13T03:20:33;90612.91;;;14.88;84.00
76074;BME280;64776;42.636;24.358;2023-07-13T03:23:36;90602.88;;;14.88;83.50
76074;BME280;64776;42.636;24.358;2023-07-13T03:26:36;90614.34;;;14.94;83.35
76074;BME280;64776;42.636;24.358;2023-07-13T03:29:37;90612.66;;;14.91;83.04
76074;BME280;64776;42.636;24.358;2023-07-13T03:32:38;90601.41;;;14.87;83.52
76074;BME280;64776;42.636;24.358;2023-07-13T03:35:40;90606.78;;;14.82;83.10
76074;BME280;64776;42.636;24.358;2023-07-13T03:38:42;90607.25;;;14.80;83.87
76074;BME280;64776;42.636;24.358;2023-07-13T03:41:43;90614.31;;;14.78;84.22
76074;BME280;64776;42.636;24.358;2023-07-13T03:44:44;90604.09;;;14.82;84.21
76074;BME280;64776;42.636;24.358;2023-07-13T03:47:45;90620.22;;;14.93;83.96
76074;BME280;64776;42.636;24.358;2023-07-13T03:50:47;90615.09;;;15.00;83.79
76074;BME280;64776;42.636;24.358;2023-07-13T03:53:49;90613.38;;;15.03;83.53
76074;BME280;64776;42.636;24.358;2023-07-13T03:56:50;90606.06;;;15.09;83.46
76074;BME280;64776;42.636;24.358;2023-07-13T03:59:51;90610.97;;;15.16;83.31
76074;BME280;64776;42.636;24.358;2023-07-13T04:02:51;90611.94;;;15.24;83.43
76074;BME280;64776;42.636;24.358;2023-07-13T04:05:52;90610.47;;;15.34;83.53
76074;BME280;64776;42.636;24.358;2023-07-13T04:08:57;90611.72;;;15.38;83.00
76074;BME280;64776;42.636;24.358;2023-07-13T04:11:58;90603.66;;;15.55;82.86
76074;BME280;64776;42.636;24.358;2023-07-13T04:14:59;90601.91;;;15.80;82.29
76074;BME280;64776;42.636;24.358;2023-07-13T04:18:00;90598.19;;;15.99;82.09
76074;BME280;64776;42.636;24.358;2023-07-13T04:21:01;90606.44;;;16.18;82.18
76074;BME280;64776;42.636;24.358;2023-07-13T04:24:03;90608.63;;;16.30;81.46
76074;BME280;64776;42.636;24.358;2023-07-13T04:27:04;90608.63;;;16.30;81.44
76074;BME280;64776;42.636;24.358;2023-07-13T04:30:07;90609.28;;;16.48;80.90
76074;BME280;64776;42.636;24.358;2023-07-13T04:33:07;90617.81;;;16.68;80.30
76074;BME280;64776;42.636;24.358;2023-07-13T04:36:09;90610.09;;;16.89;79.88
76074;BME280;64776;42.636;24.358;2023-07-13T04:39:11;90615.44;;;17.00;79.37
76074;BME280;64776;42.636;24.358;2023-07-13T04:42:12;90622.28;;;17.01;79.52
76074;BME280;64776;42.636;24.358;2023-07-13T04:45:13;90615.81;;;17.15;79.46
76074;BME280;64776;42.636;24.358;2023-07-13T04:48:14;90622.69;;;17.46;78.21
76074;BME280;64776;42.636;24.358;2023-07-13T04:51:15;90617.44;;;17.64;77.72
76074;BME280;64776;42.636;24.358;2023-07-13T04:54:18;90619.75;;;17.79;77.95
76074;BME280;64776;42.636;24.358;2023-07-13T04:57:19;90615.09;;;18.04;77.44
76074;BME280;64776;42.636;24.358;2023-07-13T05:00:20;90609.03;;;18.22;77.06
76074;BME280;64776;42.636;24.358;2023-07-13T05:03:20;90607.69;;;18.34;76.29
76074;BME280;64776;42.636;24.358;2023-07-13T05:06:21;90605.31;;;18.49;76.06
76074;BME280;64776;42.636;24.358;2023-07-13T05:09:23;90613.19;;;18.71;76.43
76074;BME280;64776;42.636;24.358;2023-07-13T05:12:24;90608.22;;;18.94;75.18
76074;BME280;64776;42.636;24.358;2023-07-13T05:15:26;90606.59;;;19.04;75.70
76074;BME280;64776;42.636;24.358;2023-07-13T05:18:27;90604.75;;;19.30;74.99
76074;BME280;64776;42.636;24.358;2023-07-13T05:21:28;90607.94;;;19.47;74.91
76074;BME280;64776;42.636;24.358;2023-07-13T05:24:32;90612.84;;;19.81;73.34
76074;BME280;64776;42.636;24.358;2023-07-13T05:27:34;90615.41;;;20.05;72.47
76074;BME280;64776;42.636;24.358;2023-07-13T05:30:35;90617.22;;;20.28;71.99
76074;BME280;64776;42.636;24.358;2023-07-13T05:33:36;90620.84;;;20.57;71.51
76074;BME280;64776;42.636;24.358;2023-07-13T05:36:37;90607.09;;;20.55;71.52
76074;BME280;64776;42.636;24.358;2023-07-13T05:39:39;90612.06;;;20.90;70.85
76074;BME280;64776;42.636;24.358;2023-07-13T05:42:40;90609.97;;;21.10;70.72
76074;BME280;64776;42.636;24.358;2023-07-13T05:45:40;90610.56;;;21.29;69.67
76074;BME280;64776;42.636;24.358;2023-07-13T05:48:42;90610.13;;;21.58;69.24
76074;BME280;64776;42.636;24.358;2023-07-13T05:51:42;90617.66;;;21.86;68.75
76074;BME280;64776;42.636;24.358;2023-07-13T05:54:45;90614.94;;;22.07;67.86
76074;BME280;64776;42.636;24.358;2023-07-13T05:57:45;90615.88;;;22.37;66.96
76074;BME280;64776;42.636;24.358;2023-07-13T06:00:46;90612.13;;;22.48;68.08
76074;BME280;64776;42.636;24.358;2023-07-13T06:03:47;90615.78;;;22.79;68.48
76074;BME280;64776;42.636;24.358;2023-07-13T06:06:48;90616.25;;;22.98;68.95
76074;BME280;64776;42.636;24.358;2023-07-13T06:09:50;90624.34;;;23.26;67.79
76074;BME280;64776;42.636;24.358;2023-07-13T06:12:51;90624.44;;;23.49;64.78
76074;BME280;64776;42.636;24.358;2023-07-13T06:15:52;90614.34;;;23.79;63.46
76074;BME280;64776;42.636;24.358;2023-07-13T06:18:53;90627.84;;;24.07;61.55
76074;BME280;64776;42.636;24.358;2023-07-13T06:21:54;90630.41;;;24.43;59.17
76074;BME280;64776;42.636;24.358;2023-07-13T06:24:56;90623.28;;;24.78;54.65
76074;BME280;64776;42.636;24.358;2023-07-13T06:27:56;90626.22;;;25.27;49.52
76074;BME280;64776;42.636;24.358;2023-07-13T06:30:58;90623.78;;;25.54;49.53
76074;BME280;64776;42.636;24.358;2023-07-13T06:33:58;90622.22;;;25.75;47.71
76074;BME280;64776;42.636;24.358;2023-07-13T06:36:59;90623.34;;;25.97;47.87
76074;BME280;64776;42.636;24.358;2023-07-13T06:40:02;90624.72;;;26.13;46.73
76074;BME280;64776;42.636;24.358;2023-07-13T06:43:02;90623.34;;;26.29;45.79
76074;BME280;64776;42.636;24.358;2023-07-13T06:46:03;90619.59;;;26.42;45.87
76074;BME280;64776;42.636;24.358;2023-07-13T06:49:04;90611.56;;;26.61;45.00
76074;BME280;64776;42.636;24.358;2023-07-13T06:52:05;90609.78;;;26.81;45.66
76074;BME280;64776;42.636;24.358;2023-07-13T06:55:08;90616.50;;;26.87;45.15
76074;BME280;64776;42.636;24.358;2023-07-13T06:58:09;90611.16;;;26.89;45.22
76074;BME280;64776;42.636;24.358;2023-07-13T07:01:10;90612.94;;;27.11;46.29
76074;BME280;64776;42.636;24.358;2023-07-13T07:04:11;90619.38;;;27.23;44.23
76074;BME280;64776;42.636;24.358;2023-07-13T07:07:11;90613.09;;;27.13;43.38
76074;BME280;64776;42.636;24.358;2023-07-13T07:10:14;90612.28;;;27.20;44.33
76074;BME280;64776;42.636;24.358;2023-07-13T07:13:14;90605.84;;;27.25;44.76
76074;BME280;64776;42.636;24.358;2023-07-13T07:16:15;90609.47;;;27.45;44.71
76074;BME280;64776;42.636;24.358;2023-07-13T07:19:16;90614.38;;;27.47;42.67
76074;BME280;64776;42.636;24.358;2023-07-13T07:22:17;90604.53;;;27.61;42.71
76074;BME280;64776;42.636;24.358;2023-07-13T07:25:19;90607.72;;;27.67;43.46
76074;BME280;64776;42.636;24.358;2023-07-13T07:28:20;90616.28;;;27.71;41.94
76074;BME280;64776;42.636;24.358;2023-07-13T07:31:21;90602.72;;;27.73;42.56
76074;BME280;64776;42.636;24.358;2023-07-13T07:34:22;90612.75;;;27.87;43.11
76074;BME280;64776;42.636;24.358;2023-07-13T07:37:23;90612.28;;;27.98;42.82
76074;BME280;64776;42.636;24.358;2023-07-13T07:40:25;90614.38;;;28.17;41.82
76074;BME280;64776;42.636;24.358;2023-07-13T07:43:29;90619.19;;;27.99;41.41
76074;BME280;64776;42.636;24.358;2023-07-13T07:46:29;90618.13;;;27.95;41.61
76074;BME280;64776;42.636;24.358;2023-07-13T07:49:30;90618.00;;;28.19;41.62
76074;BME280;64776;42.636;24.358;2023-07-13T07:52:31;90620.44;;;28.52;40.67
76074;BME280;64776;42.636;24.358;2023-07-13T07:55:35;90619.34;;;28.64;40.93
76074;BME280;64776;42.636;24.358;2023-07-13T07:58:35;90613.56;;;28.60;40.65
76074;BME280;64776;42.636;24.358;2023-07-13T08:01:36;90622.13;;;28.74;39.89
76074;BME280;64776;42.636;24.358;2023-07-13T08:04:37;90630.34;;;28.64;39.98
76074;BME280;64776;42.636;24.358;2023-07-13T08:07:39;90622.84;;;28.74;40.28
76074;BME280;64776;42.636;24.358;2023-07-13T08:10:41;90623.28;;;28.90;39.17
76074;BME280;64776;42.636;24.358;2023-07-13T08:13:42;90625.16;;;28.87;39.88
76074;BME280;64776;42.636;24.358;2023-07-13T08:16:43;90621.56;;;28.85;39.80
76074;BME280;64776;42.636;24.358;2023-07-13T08:19:44;90618.13;;;29.13;39.28
76074;BME280;64776;42.636;24.358;2023-07-13T08:22:44;90624.09;;;29.29;39.41
76074;BME280;64776;42.636;24.358;2023-07-13T08:25:52;90624.94;;;29.41;38.72
76074;BME280;64776;42.636;24.358;2023-07-13T08:28:53;90615.84;;;29.48;38.82
76074;BME280;64776;42.636;24.358;2023-07-13T08:31:54;90617.88;;;29.57;39.22
76074;BME280;64776;42.636;24.358;2023-07-13T08:34:55;90616.09;;;29.61;38.55
76074;BME280;64776;42.636;24.358;2023-07-13T08:37:55;90608.03;;;29.44;39.39
76074;BME280;64776;42.636;24.358;2023-07-13T08:40:58;90614.22;;;29.64;39.62
76074;BME280;64776;42.636;24.358;2023-07-13T08:44:00;90608.44;;;29.41;37.43
76074;BME280;64776;42.636;24.358;2023-07-13T08:47:03;90617.72;;;29.74;38.60
76074;BME280;64776;42.636;24.358;2023-07-13T08:50:04;90620.47;;;29.84;36.55
76074;BME280;64776;42.636;24.358;2023-07-13T08:53:07;90624.09;;;29.86;37.33
76074;BME280;64776;42.636;24.358;2023-07-13T08:56:17;90611.19;;;29.89;36.26
76074;BME280;64776;42.636;24.358;2023-07-13T08:59:21;90604.75;;;30.15;35.79
76074;BME280;64776;42.636;24.358;2023-07-13T09:02:26;90605.44;;;30.25;36.59
76074;BME280;64776;42.636;24.358;2023-07-13T09:05:33;90606.38;;;30.48;36.25
76074;BME280;64776;42.636;24.358;2023-07-13T09:08:46;90610.47;;;30.69;39.28
76074;BME280;64776;42.636;24.358;2023-07-13T09:11:56;90600.59;;;30.44;35.02
76074;BME280;64776;42.636;24.358;2023-07-13T09:15:00;90602.06;;;30.36;35.16
76074;BME280;64776;42.636;24.358;2023-07-13T09:18:07;90601.19;;;30.74;36.36
76074;BME280;64776;42.636;24.358;2023-07-13T09:21:13;90602.06;;;30.67;34.87
76074;BME280;64776;42.636;24.358;2023-07-13T09:24:30;90606.94;;;30.78;35.50
76074;BME280;64776;42.636;24.358;2023-07-13T09:27:39;90606.81;;;30.76;35.10
76074;BME280;64776;42.636;24.358;2023-07-13T09:30:46;90615.31;;;30.59;35.36
76074;BME280;64776;42.636;24.358;2023-07-13T09:33:49;90612.06;;;30.72;36.20
76074;BME280;64776;42.636;24.358;2023-07-13T09:36:50;90609.78;;;30.68;35.01
76074;BME280;64776;42.636;24.358;2023-07-13T09:39:52;90613.28;;;30.59;35.88
76074;BME280;64776;42.636;24.358;2023-07-13T09:42:56;90624.13;;;30.67;35.88
76074;BME280;64776;42.636;24.358;2023-07-13T09:45:58;90625.16;;;30.62;36.61
76074;BME280;64776;42.636;24.358;2023-07-13T09:48:59;90615.19;;;30.57;34.31
76074;BME280;64776;42.636;24.358;2023-07-13T09:52:03;90609.50;;;30.95;35.66
76074;BME280;64776;42.636;24.358;2023-07-13T09:55:23;90617.75;;;31.37;34.16
76074;BME280;64776;42.636;24.358;2023-07-13T09:58:30;90613.66;;;31.48;34.33
76074;BME280;64776;42.636;24.358;2023-07-13T10:01:33;90610.75;;;31.24;35.18
76074;BME280;64776;42.636;24.358;2023-07-13T10:04:34;90605.59;;;31.40;33.34
76074;BME280;64776;42.636;24.358;2023-07-13T10:07:39;90605.59;;;31.40;33.43
76074;BME280;64776;42.636;24.358;2023-07-13T10:10:41;90600.19;;;31.75;34.19
76074;BME280;64776;42.636;24.358;2023-07-13T10:13:44;90594.03;;;31.65;33.69
76074;BME280;64776;42.636;24.358;2023-07-13T10:16:47;90598.63;;;32.04;34.37
76074;BME280;64776;42.636;24.358;2023-07-13T10:19:49;90585.63;;;31.95;33.86
76074;BME280;64776;42.636;24.358;2023-07-13T10:22:53;90581.59;;;32.20;33.55
76074;BME280;64776;42.636;24.358;2023-07-13T10:25:57;90586.38;;;32.07;33.10
76074;BME280;64776;42.636;24.358;2023-07-13T10:29:04;90583.34;;;32.48;33.47
76074;BME280;64776;42.636;24.358;2023-07-13T10:32:09;90583.44;;;32.73;32.35
76074;BME280;64776;42.636;24.358;2023-07-13T10:35:14;90583.47;;;32.50;32.97
76074;BME280;64776;42.636;24.358;2023-07-13T10:38:20;90587.31;;;32.68;33.63
76074;BME280;64776;42.636;24.358;2023-07-13T10:41:22;90586.56;;;32.79;33.49
76074;BME280;64776;42.636;24.358;2023-07-13T10:44:29;90577.56;;;32.55;32.51
76074;BME280;64776;42.636;24.358;2023-07-13T10:47:30;90583.94;;;32.58;34.41
76074;BME280;64776;42.636;24.358;2023-07-13T10:50:32;90576.00;;;32.87;33.37
76074;BME280;64776;42.636;24.358;2023-07-13T10:53:36;90574.94;;;33.29;32.72
76074;BME280;64776;42.636;24.358;2023-07-13T10:56:39;90573.69;;;33.55;32.26
76074;BME280;64776;42.636;24.358;2023-07-13T10:59:42;90577.72;;;33.65;31.87
76074;BME280;64776;42.636;24.358;2023-07-13T11:02:43;90581.72;;;33.26;32.13
76074;BME280;64776;42.636;24.358;2023-07-13T11:05:48;90584.38;;;33.12;33.86
76074;BME280;64776;42.636;24.358;2023-07-13T11:08:54;90580.19;;;33.11;33.04
76074;BME280;64776;42.636;24.358;2023-07-13T11:11:56;90569.41;;;33.40;33.24
76074;BME280;64776;42.636;24.358;2023-07-13T11:15:06;90558.75;;;33.60;32.23
76074;BME280;64776;42.636;24.358;2023-07-13T11:18:20;90555.38;;;33.61;31.83
76074;BME280;64776;42.636;24.358;2023-07-13T11:21:23;90559.06;;;33.66;31.22
76074;BME280;64776;42.636;24.358;2023-07-13T11:24:29;90559.13;;;34.05;30.87
76074;BME280;64776;42.636;24.358;2023-07-13T11:27:38;90550.38;;;33.97;29.65
76074;BME280;64776;42.636;24.358;2023-07-13T11:30:43;90545.19;;;33.78;29.41
76074;BME280;64776;42.636;24.358;2023-07-13T11:34:01;90548.94;;;33.96;30.29
76074;BME280;64776;42.636;24.358;2023-07-13T11:37:02;90535.09;;;33.71;29.99
76074;BME280;64776;42.636;24.358;2023-07-13T11:40:04;90536.31;;;33.93;30.07
76074;BME280;64776;42.636;24.358;2023-07-13T11:43:06;90539.06;;;33.93;29.75
76074;BME280;64776;42.636;24.358;2023-07-13T11:46:17;90549.63;;;34.08;29.96
76074;BME280;64776;42.636;24.358;2023-07-13T11:49:21;90524.22;;;34.25;29.76
76074;BME280;64776;42.636;24.358;2023-07-13T11:52:34;90543.50;;;34.23;29.71
76074;BME280;64776;42.636;24.358;2023-07-13T11:55:38;90527.34;;;34.58;28.71
76074;BME280;64776;42.636;24.358;2023-07-13T11:58:39;90532.84;;;34.31;28.87
76074;BME280;64776;42.636;24.358;2023-07-13T12:01:43;90527.56;;;34.62;28.53
76074;BME280;64776;42.636;24.358;2023-07-13T12:04:44;90522.09;;;35.05;28.72
76074;BME280;64776;42.636;24.358;2023-07-13T12:07:46;90527.13;;;35.08;28.53
76074;BME280;64776;42.636;24.358;2023-07-13T12:10:47;90517.19;;;34.76;28.24
76074;BME280;64776;42.636;24.358;2023-07-13T12:13:48;90527.66;;;35.05;29.13
76074;BME280;64776;42.636;24.358;2023-07-13T12:16:50;90530.50;;;34.53;28.90
76074;BME280;64776;42.636;24.358;2023-07-13T12:19:52;90526.41;;;34.54;27.90
76074;BME280;64776;42.636;24.358;2023-07-13T12:22:53;90528.56;;;34.55;27.90
76074;BME280;64776;42.636;24.358;2023-07-13T12:25:55;90514.66;;;34.28;29.61
76074;BME280;64776;42.636;24.358;2023-07-13T12:28:59;90513.59;;;34.60;27.94
76074;BME280;64776;42.636;24.358;2023-07-13T12:32:02;90496.72;;;34.83;28.14
76074;BME280;64776;42.636;24.358;2023-07-13T12:35:15;90491.84;;;35.25;28.76
76074;BME280;64776;42.636;24.358;2023-07-13T12:38:17;90497.09;;;35.61;28.31
76074;BME280;64776;42.636;24.358;2023-07-13T12:41:17;90494.13;;;35.57;28.73
76074;BME280;64776;42.636;24.358;2023-07-13T12:44:24;90493.31;;;35.55;28.88
76074;BME280;64776;42.636;24.358;2023-07-13T12:47:28;90490.34;;;35.08;29.58
76074;BME280;64776;42.636;24.358;2023-07-13T12:50:40;90485.03;;;34.98;29.15
76074;BME280;64776;42.636;24.358;2023-07-13T12:53:43;90486.41;;;35.56;28.63
76074;BME280;64776;42.636;24.358;2023-07-13T12:56:49;90488.16;;;35.63;28.21
76074;BME280;64776;42.636;24.358;2023-07-13T12:59:52;90477.22;;;35.67;27.44
76074;BME280;64776;42.636;24.358;2023-07-13T13:02:56;90470.53;;;35.43;28.42
76074;BME280;64776;42.636;24.358;2023-07-13T13:05:59;90471.13;;;35.41;29.12
76074;BME280;64776;42.636;24.358;2023-07-13T13:09:00;90470.59;;;35.15;28.34
76074;BME280;64776;42.636;24.358;2023-07-13T13:12:01;90472.69;;;35.01;29.68
76074;BME280;64776;42.636;24.358;2023-07-13T13:15:02;90473.72;;;35.37;27.69
76074;BME280;64776;42.636;24.358;2023-07-13T13:18:13;90462.16;;;35.72;27.06
76074;BME280;64776;42.636;24.358;2023-07-13T13:21:15;90462.91;;;35.72;27.92
76074;BME280;64776;42.636;24.358;2023-07-13T13:24:18;90463.75;;;35.61;28.58
76074;BME280;64776;42.636;24.358;2023-07-13T13:27:21;90459.34;;;35.85;27.74
76074;BME280;64776;42.636;24.358;2023-07-13T13:30:23;90471.06;;;35.84;26.49
76074;BME280;64776;42.636;24.358;2023-07-13T13:33:25;90467.97;;;36.07;26.88
76074;BME280;64776;42.636;24.358;2023-07-13T13:36:25;90464.75;;;35.97;26.67
76074;BME280;64776;42.636;24.358;2023-07-13T13:39:35;90464.97;;;35.43;28.12
76074;BME280;64776;42.636;24.358;2023-07-13T13:42:36;90466.94;;;34.84;28.90
76074;BME280;64776;42.636;24.358;2023-07-13T13:45:37;90467.16;;;34.47;29.45
76074;BME280;64776;42.636;24.358;2023-07-13T13:48:39;90468.91;;;34.27;29.46
76074;BME280;64776;42.636;24.358;2023-07-13T13:51:41;90471.69;;;34.68;29.27
76074;BME280;64776;42.636;24.358;2023-07-13T13:54:42;90467.78;;;35.29;29.99
76074;BME280;64776;42.636;24.358;2023-07-13T13:57:43;90468.34;;;35.41;28.50
76074;BME280;64776;42.636;24.358;2023-07-13T14:00:44;90463.75;;;35.03;29.00
76074;BME280;64776;42.636;24.358;2023-07-13T14:03:46;90458.44;;;34.53;28.71
76074;BME280;64776;42.636;24.358;2023-07-13T14:06:47;90465.31;;;34.65;30.31
76074;BME280;64776;42.636;24.358;2023-07-13T14:09:50;90467.47;;;34.80;29.39
76074;BME280;64776;42.636;24.358;2023-07-13T14:12:52;90456.63;;;35.13;26.39
76074;BME280;64776;42.636;24.358;2023-07-13T14:15:54;90455.06;;;35.24;24.26
76074;BME280;64776;42.636;24.358;2023-07-13T14:18:56;90443.47;;;35.14;24.59
76074;BME280;64776;42.636;24.358;2023-07-13T14:21:57;90447.72;;;35.01;25.54
76074;BME280;64776;42.636;24.358;2023-07-13T14:24:58;90446.59;;;34.79;25.57
76074;BME280;64776;42.636;24.358;2023-07-13T14:28:00;90443.81;;;34.79;25.13
76074;BME280;64776;42.636;24.358;2023-07-13T14:31:01;90442.31;;;34.76;24.27
76074;BME280;64776;42.636;24.358;2023-07-13T14:34:03;90440.38;;;34.65;24.33
76074;BME280;64776;42.636;24.358;2023-07-13T14:37:04;90437.88;;;34.71;23.87
76074;BME280;64776;42.636;24.358;2023-07-13T14:40:13;90448.00;;;33.99;25.49
76074;BME280;64776;42.636;24.358;2023-07-13T14:43:15;90440.84;;;34.48;27.45
76074;BME280;64776;42.636;24.358;2023-07-13T14:46:26;90445.34;;;34.01;26.02
76074;BME280;64776;42.636;24.358;2023-07-13T14:49:31;90446.13;;;34.15;25.52
76074;BME280;64776;42.636;24.358;2023-07-13T14:52:32;90440.56;;;34.42;25.71
76074;BME280;64776;42.636;24.358;2023-07-13T14:55:33;90447.53;;;34.43;26.25
76074;BME280;64776;42.636;24.358;2023-07-13T14:58:34;90443.13;;;34.24;27.86
76074;BME280;64776;42.636;24.358;2023-07-13T15:01:35;90438.63;;;34.31;25.91
76074;BME280;64776;42.636;24.358;2023-07-13T15:04:38;90440.16;;;34.20;26.31
76074;BME280;64776;42.636;24.358;2023-07-13T15:07:39;90439.34;;;34.04;26.30
76074;BME280;64776;42.636;24.358;2023-07-13T15:10:40;90440.53;;;34.01;27.64
76074;BME280;64776;42.636;24.358;2023-07-13T15:13:41;90443.00;;;34.09;28.31
76074;BME280;64776;42.636;24.358;2023-07-13T15:16:42;90440.16;;;34.20;28.28
76074;BME280;64776;42.636;24.358;2023-07-13T15:19:44;90437.16;;;34.03;28.61
76074;BME280;64776;42.636;24.358;2023-07-13T15:22:46;90441.94;;;33.89;29.29
76074;BME280;64776;42.636;24.358;2023-07-13T15:25:47;90441.44;;;33.53;28.92
76074;BME280;64776;42.636;24.358;2023-07-13T15:28:47;90434.47;;;33.52;28.13
76074;BME280;64776;42.636;24.358;2023-07-13T15:31:48;90439.44;;;33.42;28.53
76074;BME280;64776;42.636;24.358;2023-07-13T15:34:50;90431.81;;;33.54;28.85
76074;BME280;64776;42.636;24.358;2023-07-13T15:37:51;90433.25;;;33.55;28.68
76074;BME280;64776;42.636;24.358;2023-07-13T15:40:53;90432.34;;;33.64;30.13
76074;BME280;64776;42.636;24.358;2023-07-13T15:43:56;90438.47;;;33.49;30.16
76074;BME280;64776;42.636;24.358;2023-07-13T15:46:57;90442.09;;;33.15;30.70
76074;BME280;64776;42.636;24.358;2023-07-13T15:49:59;90435.69;;;32.87;31.14
76074;BME280;64776;42.636;24.358;2023-07-13T15:53:00;90435.56;;;32.85;31.67
76074;BME280;64776;42.636;24.358;2023-07-13T15:56:02;90443.47;;;32.66;31.31
76074;BME280;64776;42.636;24.358;2023-07-13T15:59:12;90440.03;;;32.79;31.85